Flight Track Log - Related Links

Times and Time Zones

All times are in EDT time to prevent confusion due to time zone crossing. See the SKW6492 flight status page for this flight to view local times or setup timezone preferences in your user account.

Time Position Orientation Groundspeed Altitude Reporting Facility
EDT Latitude Longitude Course Direction KTS MPH feet Rate Location/Type
Tue 10:24:55 PM 39.8833 -104.5833 346° North 207 238 6,700  Level Denver TRACON
Tue 10:25:55 PM 39.9333 -104.5000 52° Northeast 274 315 9,000 2,100 Climbing Denver TRACON
Tue 10:26:55 PM 39.9833 -104.4333 46° Northeast 289 333 10,900 2,050 Climbing Denver TRACON
Tue 10:27:00 PM 40.1709 -104.7729 347° North  Level FlightAware Approximate
Tue 10:27:55 PM 40.0500 -104.4333 360° North 292 336 13,100  Level Denver TRACON
Tue 10:28:00 PM 40.2786 -104.8052 347° North  Level FlightAware Approximate
Tue 10:28:55 PM 40.1333 -104.4833 335° Northwest 302 348 15,100  Level Denver TRACON
Tue 10:29:00 PM 40.3860 -104.8398 346° North  Level FlightAware Approximate
Tue 10:29:17 PM 40.1431 -104.4842 356° North 298 343 15,300  Level Denver Center
Tue 10:30:00 PM 40.4932 -104.8755 346° North  Level FlightAware Approximate
Tue 10:30:18 PM 40.2431 -104.5411 337° Northwest 321 369 17,700  Level Denver Center
Tue 10:31:20 PM 40.3306 -104.5892 337° Northwest 347 399 18,100 780 Climbing Denver Center
Tue 10:32:21 PM 40.4350 -104.6500 336° Northwest 380 437 19,300 1,180 Climbing Denver Center
Tue 10:33:22 PM 40.5333 -104.7058 337° Northwest 382 440 20,500 1,171 Climbing Denver Center
Tue 10:34:24 PM 40.6333 -104.7628 337° Northwest 391 450 21,700 1,171 Climbing Denver Center
Tue 10:35:25 PM 40.7328 -104.8228 335° Northwest 388 447 22,900 1,180 Climbing Denver Center
Tue 10:36:26 PM 40.8325 -104.8728 339° North 387 445 24,100 878 Climbing Denver Center
Tue 10:37:28 PM 40.9389 -104.9264 339° North 403 464 24,700 537 Climbing Denver Center
Tue 10:38:29 PM 41.0475 -104.9753 341° North 413 475 25,200 590 Climbing Denver Center
Tue 10:39:30 PM 41.1733 -105.0386 339° North 430 495 25,900 780 Climbing Denver Center
Tue 10:40:32 PM 41.2800 -105.0925 339° North 428 493 26,800 829 Climbing Denver Center
Tue 10:41:33 PM 41.4050 -105.1525 340° North 427 491 27,600 689 Climbing Denver Center
Tue 10:42:34 PM 41.5131 -105.2092 339° North 433 498 28,200 537 Climbing Denver Center
Tue 10:43:36 PM 41.6119 -105.2856 330° Northwest 432 497 28,700 585 Climbing Denver Center
Tue 10:44:37 PM 41.7186 -105.4025 321° Northwest 440 506 29,400 836 Climbing Denver Center
Tue 10:45:38 PM 41.8072 -105.4975 321° Northwest 431 496 30,400 933 Climbing Denver Center
Tue 10:46:52 PM 41.9094 -105.6078 321° Northwest 424 488 31,500 711 Climbing Denver Center
Tue 10:47:53 PM 42.0092 -105.7164 321° Northwest 414 476 32,000 244 Climbing Denver Center
Tue 10:48:55 PM 42.1103 -105.8286 321° Northwest 419 482 32,000  Level Denver Center
Tue 10:49:56 PM 42.2014 -105.9292 321° Northwest 438 504 32,000  Level Denver Center
Tue 10:50:57 PM 42.2950 -106.0322 321° Northwest 450 518 32,000  Level Denver Center
Tue 10:51:59 PM 42.4036 -106.1547 320° Northwest 453 521 32,000  Level Denver Center
Tue 10:53:00 PM 42.4978 -106.2594 321° Northwest 455 524 32,000  Level Denver Center
Tue 10:54:01 PM 42.5922 -106.3656 320° Northwest 459 528 32,000  Level Denver Center
Tue 10:55:03 PM 42.6867 -106.4714 321° Northwest 458 527 32,000  Level Denver Center
Tue 10:56:04 PM 42.7961 -106.5950 320° Northwest 457 526 32,000  Level Denver Center
Tue 10:57:06 PM 42.9056 -106.7194 320° Northwest 458 527 32,000  Level Denver Center
Tue 10:58:07 PM 42.9978 -106.8281 319° Northwest 456 525 32,000  Level Denver Center
Tue 10:59:08 PM 43.0922 -106.9339 321° Northwest 457 526 32,000  Level Denver Center
Tue 10:59:52 PM 43.1733 -107.0314 319° Northwest 455 524 32,000  Level Salt Lake Center
Tue 11:00:54 PM 43.2667 -107.1394 320° Northwest 457 526 32,000  Level Salt Lake Center
Tue 11:01:11 PM 43.2986 -107.1733 322° Northwest 456 525 32,000  Level Denver Center
Tue 11:02:12 PM 43.3931 -107.2811 320° Northwest 459 528 32,000  Level Denver Center
Tue 11:02:56 PM 43.4706 -107.3725 319° Northwest 461 531 32,000  Level Salt Lake Center
Tue 11:03:58 PM 43.5644 -107.4825 320° Northwest 463 533 32,000  Level Salt Lake Center
Tue 11:04:59 PM 43.6731 -107.6108 320° Northwest 460 529 32,000  Level Salt Lake Center
Tue 11:06:00 PM 43.7667 -107.7217 319° Northwest 462 532 32,000  Level Salt Lake Center
Tue 11:07:02 PM 43.8611 -107.8350 319° Northwest 466 536 32,000 -1,756 Level Salt Lake Center
Tue 11:08:03 PM 43.9697 -107.9653 319° Northwest 461 531 28,400 -3,443 Descending Salt Lake Center
Tue 11:09:04 PM 44.0539 -108.0858 314° West 453 521 25,000 -3,268 Descending Salt Lake Center
Tue 11:10:06 PM 44.1333 -108.2053 313° West 440 506 21,700 -3,561 Descending Salt Lake Center
Tue 11:11:07 PM 44.2197 -108.3411 312° West 424 488 17,700 -3,639 Descending Salt Lake Center
Tue 11:12:08 PM 44.2911 -108.4497 313° West 410 472 14,300 -2,803 Descending Salt Lake Center
Tue 11:13:09 PM 44.3550 -108.5550 310° West 391 450 12,000 -1,317 Descending Salt Lake Center
Tue 11:14:11 PM 44.3944 -108.6697 296° West 320 368 11,600 -927 Descending Salt Lake Center
Tue 11:15:12 PM 44.4053 -108.7686 279° West 287 330 10,100 -1,426 Descending Salt Lake Center
Tue 11:16:13 PM 44.4175 -108.8806 279° West 268 308 8,700 -1,180 Descending Salt Lake Center
Tue 11:17:14 PM 44.4308 -108.9761 281° West 264 304 7,700 -683 Descending Salt Lake Center
Tue 11:18:16 PM 44.4411 -109.0633 279° West 252 290 7,300 -387 Descending Salt Lake Center

Login

Don't have an account? Register now (free) for customized features, flight alerts, and more!